Terminal Aerodrome Forecast
Issued by NWS Cleveland, OH

Home | Current Version | Previous Version | Graphics & Text | Print | Product List | Glossary On
Versions: 1 2 3 4 5 6 7 8 9 10 11 12 13 14 15 16 17 18 19 20 21 22
652
FTUS41 KCLE 171521 AAB
TAFMFD
TAF AMD
KMFD 171521Z 1715/1812 20015G25KT P6SM VCSH BKN015 OVC025
      TEMPO 1715/1717 6SM -SHRA SCT015 BKN035
     FM171700 24014G22KT P6SM BKN018
     FM180000 26009KT 5SM BR VCSH OVC005=

USA.gov is the U.S. government's official web portal to all federal, state and local government web resources and services.